UTDL

Khudzhand Airport

Khudzhand, Tajikistan
TAF UTDL 260300Z 2604/2613 08007MPS 9999 NSC TEMPO 2607/2613 08012MPS
Issued Valid From Valid To
Apr-26 @ 03:00 UTC
(3 hours ago)
Apr-26 @ 04:00 UTC
(2 hours ago)
Apr-26 @ 13:00 UTC
(in 7 hours)
Apr-26 @ 04:00 to Apr-26 @ 13:00
TAF UTDL 260300Z 2604/2613 08007MPS 9999 NSC
Wind Visibility Clouds
80° at 14 knots 10,000+ meters
  • No significant clouds
Temporary Apr-26 @ 07:00 to Apr-26 @ 13:00
TEMPO 2607/2613 08012MPS
Wind
80° at 23 knots
TAF UTDL 260300Z 2604/2613 08007MPS 9999 NSC TEMPO 2607/2613 08012MPS
Issued Apr-26 @ 03:00 UTC
(3 hours ago)
Valid From Apr-26 @ 04:00 UTC
(2 hours ago)
Valid To Apr-26 @ 13:00 UTC
(in 7 hours)
Apr-26 @ 04:00 - Apr-26 @ 13:00
Wind Visibility
80° at 14 knots 10,000+ meters
Clouds
  • No significant clouds
Temporary Apr-26 @ 07:00 - Apr-26 @ 13:00
Wind
80° at 23 knots